Time;durP1;ratioP1;P1;durP2;ratioP2;P2;SDS_P1;SDS_P2;PMS_P1;PMS_P2;Temp;Humidity;BMP_temperature;BMP_pressure;BME280_temperature;BME280_humidity;BME280_pressure;Samples;Min_cycle;Max_cycle;Signal;HPM_P1;HPM_P2
2021/09/10 00:02:20;;;;;;;8.27;5.60;;;;;;;;;;5115219;28;20051;-59
2021/09/10 00:04:46;;;;;;;6.78;6.07;;;;;;;;;;5114409;28;20139;-60
2021/09/10 00:07:11;;;;;;;6.17;5.33;;;;;;;;;;5114544;28;20020;-60
2021/09/10 00:09:36;;;;;;;5.97;5.38;;;;;;;;;;5114304;28;20382;-60
2021/09/10 00:12:01;;;;;;;6.38;5.40;;;;;;;;;;5114911;28;20057;-60
2021/09/10 00:14:27;;;;;;;6.43;5.05;;;;;;;;;;5114126;28;20034;-60
2021/09/10 00:16:52;;;;;;;7.53;5.35;;;;;;;;;;5114697;28;20016;-59
2021/09/10 00:19:17;;;;;;;6.28;5.53;;;;;;;;;;5114098;28;20020;-60
2021/09/10 00:21:42;;;;;;;6.88;6.18;;;;;;;;;;5114647;28;20080;-60
2021/09/10 00:24:07;;;;;;;8.10;6.45;;;;;;;;;;5114581;28;20020;-59
2021/09/10 00:26:32;;;;;;;6.70;6.00;;;;;;;;;;5114403;28;20385;-61
2021/09/10 00:28:58;;;;;;;6.53;5.93;;;;;;;;;;5114699;28;20031;-60
2021/09/10 00:31:23;;;;;;;7.22;6.47;;;;;;;;;;5114095;28;20020;-60
2021/09/10 00:33:48;;;;;;;6.63;6.03;;;;;;;;;;5113877;28;20051;-60
2021/09/10 00:36:13;;;;;;;6.05;5.55;;;;;;;;;;5114297;28;20023;-60
2021/09/10 00:38:39;;;;;;;7.00;6.30;;;;;;;;;;5111241;28;20020;-60
2021/09/10 00:41:04;;;;;;;8.25;5.93;;;;;;;;;;5113724;28;20032;-60
2021/09/10 00:43:29;;;;;;;6.53;5.93;;;;;;;;;;5114122;28;20012;-60
2021/09/10 00:45:56;;;;;;;8.23;6.68;;;;;;;;;;5114299;28;20036;-60
2021/09/10 00:48:21;;;;;;;8.52;6.80;;;;;;;;;;5113557;28;20053;-60
2021/09/10 00:50:47;;;;;;;6.90;6.18;;;;;;;;;;5114412;28;20023;-60
2021/09/10 00:53:13;;;;;;;7.30;6.55;;;;;;;;;;5113933;28;20070;-60
2021/09/10 00:55:39;;;;;;;7.28;6.55;;;;;;;;;;5112991;28;20564;-60
2021/09/10 00:58:05;;;;;;;8.32;7.13;;;;;;;;;;5113615;28;20098;-60
2021/09/10 01:00:30;;;;;;;7.57;6.43;;;;;;;;;;5112888;28;20043;-60
2021/09/10 01:02:56;;;;;;;7.40;6.65;;;;;;;;;;5113872;28;20039;-60
2021/09/10 01:05:21;;;;;;;8.30;7.43;;;;;;;;;;5113693;28;20065;-60
2021/09/10 01:07:47;;;;;;;6.90;6.22;;;;;;;;;;5113374;28;20075;-60
2021/09/10 01:10:13;;;;;;;8.48;7.35;;;;;;;;;;5112964;28;20012;-60
2021/09/10 01:12:38;;;;;;;8.18;7.45;;;;;;;;;;5113501;28;20557;-60
2021/09/10 01:15:04;;;;;;;8.00;7.30;;;;;;;;;;5113338;28;20027;-60
2021/09/10 01:17:29;;;;;;;8.50;6.82;;;;;;;;;;5113061;28;20023;-60
2021/09/10 01:19:54;;;;;;;8.45;7.47;;;;;;;;;;5094378;28;20020;-60
2021/09/10 01:22:20;;;;;;;7.88;6.78;;;;;;;;;;5112850;28;20018;-60
2021/09/10 01:25:03;;;;;;;9.38;7.10;;;;;;;;;;5112885;28;20102;-60
2021/09/10 01:27:28;;;;;;;8.15;7.30;;;;;;;;;;5111730;28;20051;-60
2021/09/10 01:29:54;;;;;;;7.63;6.72;;;;;;;;;;5113527;28;20373;-60
2021/09/10 01:32:19;;;;;;;8.60;7.38;;;;;;;;;;5113253;28;20386;-60
2021/09/10 01:34:44;;;;;;;8.52;7.57;;;;;;;;;;5112767;28;20047;-60
2021/09/10 01:37:09;;;;;;;8.30;7.60;;;;;;;;;;5112736;28;20374;-60
2021/09/10 01:39:34;;;;;;;8.88;8.07;;;;;;;;;;5112852;28;20374;-60
2021/09/10 01:42:00;;;;;;;8.30;7.55;;;;;;;;;;5112338;28;20018;-60
2021/09/10 01:44:25;;;;;;;8.65;7.32;;;;;;;;;;5113107;28;20020;-60
2021/09/10 01:46:50;;;;;;;11.90;7.50;;;;;;;;;;5112797;28;20104;-60
2021/09/10 01:49:16;;;;;;;8.48;7.47;;;;;;;;;;5112931;28;20486;-60
2021/09/10 01:51:41;;;;;;;8.18;7.18;;;;;;;;;;5112838;28;20103;-60
2021/09/10 01:54:06;;;;;;;9.50;7.78;;;;;;;;;;5112225;28;20474;-60
2021/09/10 01:56:31;;;;;;;8.40;7.63;;;;;;;;;;5093905;28;20085;-60
2021/09/10 01:58:57;;;;;;;7.95;7.15;;;;;;;;;;5112674;28;20123;-60
2021/09/10 02:01:23;;;;;;;9.00;8.10;;;;;;;;;;5112548;28;20090;-60
2021/09/10 02:03:48;;;;;;;8.50;7.60;;;;;;;;;;5112843;28;20127;-60
2021/09/10 02:06:13;;;;;;;8.55;7.75;;;;;;;;;;5112558;28;20527;-60
2021/09/10 02:08:38;;;;;;;9.10;8.20;;;;;;;;;;5112343;28;20027;-60
2021/09/10 02:11:04;;;;;;;9.30;7.90;;;;;;;;;;5111688;28;20024;-60
2021/09/10 02:13:29;;;;;;;9.30;8.05;;;;;;;;;;5111314;28;20103;-59
2021/09/10 02:15:54;;;;;;;10.20;8.30;;;;;;;;;;5111574;28;20156;-60
2021/09/10 02:18:19;;;;;;;10.00;8.70;;;;;;;;;;5093881;28;20024;-60
2021/09/10 02:20:44;;;;;;;9.55;8.65;;;;;;;;;;5112242;28;20022;-60
2021/09/10 02:23:10;;;;;;;9.20;8.40;;;;;;;;;;5112519;28;20023;-60
2021/09/10 02:25:35;;;;;;;10.57;9.55;;;;;;;;;;5111863;28;20466;-60
2021/09/10 02:28:00;;;;;;;9.30;8.40;;;;;;;;;;5112034;28;20024;-60
2021/09/10 02:30:25;;;;;;;9.38;8.52;;;;;;;;;;5112283;28;20076;-60
2021/09/10 02:32:51;;;;;;;10.93;8.43;;;;;;;;;;5111869;28;20048;-60
2021/09/10 02:35:16;;;;;;;9.52;8.63;;;;;;;;;;5111624;28;20385;-60
2021/09/10 02:37:41;;;;;;;8.95;8.15;;;;;;;;;;5111357;28;20028;-60
2021/09/10 02:40:07;;;;;;;10.45;9.07;;;;;;;;;;5111708;28;20030;-60
2021/09/10 02:42:32;;;;;;;9.93;8.98;;;;;;;;;;5112321;28;20497;-60
2021/09/10 02:44:57;;;;;;;10.27;9.27;;;;;;;;;;5111790;28;20031;-60
2021/09/10 02:47:22;;;;;;;10.13;9.25;;;;;;;;;;5111612;28;20497;-60
2021/09/10 02:49:47;;;;;;;9.68;8.75;;;;;;;;;;5112247;28;20042;-60
2021/09/10 02:52:13;;;;;;;13.55;9.30;;;;;;;;;;5112351;28;20034;-60
2021/09/10 02:54:38;;;;;;;10.15;9.23;;;;;;;;;;5110884;28;20470;-59
2021/09/10 02:57:03;;;;;;;10.93;9.82;;;;;;;;;;5111519;28;20034;-59
2021/09/10 02:59:28;;;;;;;10.02;9.13;;;;;;;;;;5112358;28;20026;-59
2021/09/10 03:01:54;;;;;;;11.00;9.90;;;;;;;;;;5111929;28;20031;-59
2021/09/10 03:04:19;;;;;;;12.77;11.68;;;;;;;;;;5112267;28;20118;-59
2021/09/10 03:06:44;;;;;;;14.32;12.93;;;;;;;;;;5111786;28;20367;-59
2021/09/10 03:09:09;;;;;;;12.63;11.52;;;;;;;;;;5111633;28;20119;-60
2021/09/10 03:11:34;;;;;;;13.27;11.07;;;;;;;;;;5111559;28;20028;-60
2021/09/10 03:14:00;;;;;;;15.95;14.35;;;;;;;;;;5111384;28;20103;-60
2021/09/10 03:16:25;;;;;;;15.68;14.20;;;;;;;;;;5111476;28;20092;-59
2021/09/10 03:18:50;;;;;;;22.38;20.40;;;;;;;;;;5111330;28;20008;-60
2021/09/10 03:21:15;;;;;;;28.38;25.88;;;;;;;;;;5111957;28;20462;-60
2021/09/10 03:23:41;;;;;;;30.85;27.95;;;;;;;;;;5102527;28;20409;-60
2021/09/10 03:26:06;;;;;;;43.88;40.08;;;;;;;;;;5115615;28;20076;-60
2021/09/10 03:28:31;;;;;;;40.20;36.92;;;;;;;;;;5115152;28;20016;-61
2021/09/10 03:30:56;;;;;;;34.30;31.38;;;;;;;;;;5115646;28;20358;-60
2021/09/10 03:33:21;;;;;;;26.08;23.73;;;;;;;;;;5114236;28;20036;-60
2021/09/10 03:35:47;;;;;;;19.92;18.13;;;;;;;;;;5115144;28;20072;-60
2021/09/10 03:38:12;;;;;;;19.90;18.20;;;;;;;;;;5114455;28;20015;-60
2021/09/10 03:40:37;;;;;;;20.23;18.42;;;;;;;;;;5114449;28;20077;-60
2021/09/10 03:43:04;;;;;;;19.17;17.40;;;;;;;;;;5115777;28;20430;-60
2021/09/10 03:45:29;;;;;;;17.70;15.90;;;;;;;;;;5115367;28;20398;-60
2021/09/10 03:47:54;;;;;;;15.15;13.77;;;;;;;;;;5114473;28;20028;-60
2021/09/10 03:50:19;;;;;;;16.93;15.17;;;;;;;;;;5115264;28;20039;-60
2021/09/10 03:52:44;;;;;;;17.00;15.40;;;;;;;;;;5115481;28;20334;-60
2021/09/10 03:55:11;;;;;;;16.30;14.63;;;;;;;;;;5113856;28;20110;-60
2021/09/10 03:57:36;;;;;;;18.85;17.05;;;;;;;;;;5114666;28;20257;-60
2021/09/10 04:00:02;;;;;;;17.83;16.13;;;;;;;;;;5114904;28;20030;-60
2021/09/10 04:02:27;;;;;;;17.15;15.57;;;;;;;;;;5115073;28;20016;-60
2021/09/10 04:04:52;;;;;;;14.85;13.43;;;;;;;;;;5096348;28;20015;-60
2021/09/10 04:07:17;;;;;;;15.63;14.05;;;;;;;;;;5114806;28;20047;-60
2021/09/10 04:09:43;;;;;;;15.30;13.80;;;;;;;;;;5113588;28;20027;-60
2021/09/10 04:12:08;;;;;;;15.80;14.38;;;;;;;;;;5114850;28;20031;-60
2021/09/10 04:14:33;;;;;;;15.15;13.65;;;;;;;;;;5114081;28;20028;-60
2021/09/10 04:16:58;;;;;;;14.32;12.70;;;;;;;;;;5114198;28;20027;-59
2021/09/10 04:19:23;;;;;;;13.63;12.38;;;;;;;;;;5114197;28;20072;-59
2021/09/10 04:21:49;;;;;;;13.43;11.93;;;;;;;;;;5114328;28;20042;-59
2021/09/10 04:24:17;;;;;;;11.82;10.80;;;;;;;;;;5114774;28;20081;-60
2021/09/10 04:26:42;;;;;;;12.45;11.18;;;;;;;;;;5114030;28;20071;-60
2021/09/10 04:29:08;;;;;;;12.88;11.65;;;;;;;;;;5113664;28;20266;-60
2021/09/10 04:31:34;;;;;;;15.80;12.98;;;;;;;;;;5114427;28;20070;-60
2021/09/10 04:33:59;;;;;;;13.27;11.70;;;;;;;;;;5113841;28;20513;-60
2021/09/10 04:36:24;;;;;;;12.13;11.05;;;;;;;;;;5112222;28;20103;-60
2021/09/10 04:38:49;;;;;;;12.43;11.27;;;;;;;;;;5095542;28;20043;-60
2021/09/10 04:41:14;;;;;;;12.60;11.20;;;;;;;;;;5095613;28;20258;-60
2021/09/10 04:43:39;;;;;;;12.93;11.18;;;;;;;;;;5113645;28;20069;-60
2021/09/10 04:46:05;;;;;;;12.73;11.55;;;;;;;;;;5113788;28;20023;-60
2021/09/10 04:48:30;;;;;;;12.40;11.15;;;;;;;;;;5113891;28;20027;-60
2021/09/10 04:50:55;;;;;;;12.50;11.15;;;;;;;;;;5114210;28;20023;-60
2021/09/10 04:53:20;;;;;;;13.23;11.10;;;;;;;;;;5113955;28;20176;-60
2021/09/10 04:55:46;;;;;;;12.23;10.50;;;;;;;;;;5113472;28;20070;-60
2021/09/10 04:58:11;;;;;;;14.25;12.10;;;;;;;;;;5113451;28;20444;-60
2021/09/10 05:00:36;;;;;;;13.35;11.45;;;;;;;;;;5113561;28;20529;-60
2021/09/10 05:03:01;;;;;;;11.80;10.68;;;;;;;;;;5113899;28;20025;-60
2021/09/10 05:05:26;;;;;;;13.98;10.50;;;;;;;;;;5113174;28;20027;-60
2021/09/10 05:07:53;;;;;;;13.10;11.80;;;;;;;;;;5113045;28;20050;-60
2021/09/10 05:10:18;;;;;;;12.63;11.07;;;;;;;;;;5112815;28;20035;-59
2021/09/10 05:12:43;;;;;;;14.32;10.50;;;;;;;;;;5113936;28;20024;-60
2021/09/10 05:15:09;;;;;;;13.63;11.10;;;;;;;;;;5112471;28;20059;-60
2021/09/10 05:17:34;;;;;;;15.25;11.50;;;;;;;;;;5113225;28;20504;-60
2021/09/10 05:20:00;;;;;;;14.30;10.52;;;;;;;;;;5112569;28;20022;-60
2021/09/10 05:22:26;;;;;;;12.23;11.02;;;;;;;;;;5113343;28;20026;-60
2021/09/10 05:24:51;;;;;;;13.82;11.07;;;;;;;;;;5112775;28;20378;-59
2021/09/10 05:27:16;;;;;;;14.05;11.18;;;;;;;;;;5112820;28;20048;-60
2021/09/10 05:29:41;;;;;;;11.80;10.10;;;;;;;;;;5111792;28;20024;-60
2021/09/10 05:32:07;;;;;;;13.00;9.95;;;;;;;;;;5113394;28;20042;-60
2021/09/10 05:34:32;;;;;;;13.00;10.90;;;;;;;;;;5112747;28;20040;-60
2021/09/10 05:36:57;;;;;;;14.15;10.98;;;;;;;;;;5112963;28;20031;-59
2021/09/10 05:39:22;;;;;;;12.23;10.68;;;;;;;;;;5112262;28;20015;-59
2021/09/10 05:41:47;;;;;;;13.48;11.07;;;;;;;;;;5109933;28;20182;-60
2021/09/10 05:44:14;;;;;;;12.77;11.40;;;;;;;;;;5108597;28;20023;-59
2021/09/10 05:46:39;;;;;;;13.00;10.27;;;;;;;;;;5110878;28;20023;-61
2021/09/10 05:49:04;;;;;;;14.57;10.32;;;;;;;;;;5111429;28;20103;-61
2021/09/10 05:51:29;;;;;;;10.65;9.60;;;;;;;;;;5112137;28;20130;-61
2021/09/10 05:53:54;;;;;;;10.77;9.65;;;;;;;;;;5112128;28;20024;-62
2021/09/10 05:56:20;;;;;;;10.50;9.40;;;;;;;;;;5111901;28;20498;-60
2021/09/10 05:58:45;;;;;;;15.97;10.17;;;;;;;;;;5112145;28;20385;-61
2021/09/10 06:01:10;;;;;;;11.15;9.80;;;;;;;;;;5100079;28;20320;-60
2021/09/10 06:03:35;;;;;;;10.23;9.23;;;;;;;;;;5093497;28;20016;-60
2021/09/10 06:06:00;;;;;;;11.60;9.00;;;;;;;;;;5108591;28;20020;-61
2021/09/10 06:08:26;;;;;;;10.93;9.70;;;;;;;;;;5111810;28;20319;-61
2021/09/10 06:10:51;;;;;;;9.80;8.80;;;;;;;;;;5117970;27;20067;-60
2021/09/10 06:13:16;;;;;;;9.30;8.13;;;;;;;;;;5121879;27;20073;-60
2021/09/10 06:15:41;;;;;;;9.35;8.38;;;;;;;;;;5109604;28;20023;-60
2021/09/10 06:18:07;;;;;;;12.07;8.27;;;;;;;;;;5114950;27;20016;-60
2021/09/10 06:20:32;;;;;;;13.07;7.93;;;;;;;;;;5110757;27;20072;-61
2021/09/10 06:22:57;;;;;;;9.85;8.20;;;;;;;;;;5111174;28;20020;-61
2021/09/10 06:25:24;;;;;;;10.95;8.55;;;;;;;;;;5109270;28;20378;-59
2021/09/10 06:27:50;;;;;;;9.82;8.73;;;;;;;;;;5111493;28;20027;-60
2021/09/10 06:30:15;;;;;;;9.18;8.32;;;;;;;;;;5112073;28;20114;-60
2021/09/10 06:32:40;;;;;;;10.55;9.35;;;;;;;;;;5102638;28;20073;-61
2021/09/10 06:35:06;;;;;;;11.87;8.90;;;;;;;;;;5098845;28;20047;-61
2021/09/10 06:37:31;;;;;;;10.13;9.13;;;;;;;;;;5107846;28;20297;-61
2021/09/10 06:39:56;;;;;;;10.63;9.00;;;;;;;;;;5110340;28;20024;-61
2021/09/10 06:42:21;;;;;;;10.38;9.43;;;;;;;;;;5106240;28;20012;-61
2021/09/10 06:44:50;;;;;;;9.75;8.75;;;;;;;;;;5102486;28;20106;-61
2021/09/10 06:47:16;;;;;;;9.18;8.20;;;;;;;;;;5110815;28;20046;-61
2021/09/10 06:49:41;;;;;;;9.18;8.20;;;;;;;;;;5110507;28;20035;-61
2021/09/10 06:52:06;;;;;;;10.82;8.15;;;;;;;;;;5111215;28;20024;-61
2021/09/10 06:54:31;;;;;;;10.37;8.77;;;;;;;;;;5104206;28;20194;-60
2021/09/10 06:56:56;;;;;;;8.70;7.80;;;;;;;;;;5095722;28;20269;-60
2021/09/10 06:59:21;;;;;;;8.97;7.90;;;;;;;;;;5097751;28;20277;-59
2021/09/10 07:01:47;;;;;;;8.20;7.47;;;;;;;;;;5105385;28;20689;-61
2021/09/10 07:04:12;;;;;;;8.30;7.15;;;;;;;;;;5107840;28;20023;-60
2021/09/10 07:06:38;;;;;;;7.38;6.68;;;;;;;;;;5109490;28;20026;-58
2021/09/10 07:09:03;;;;;;;7.90;6.82;;;;;;;;;;5109297;28;20020;-61
2021/09/10 07:11:30;;;;;;;6.82;5.65;;;;;;;;;;5105800;28;20016;-61
2021/09/10 07:13:55;;;;;;;6.82;6.22;;;;;;;;;;5111497;28;20106;-60
2021/09/10 07:16:20;;;;;;;6.97;6.38;;;;;;;;;;5111112;28;20111;-61
2021/09/10 07:18:46;;;;;;;7.13;5.93;;;;;;;;;;5107268;28;20110;-61
2021/09/10 07:21:11;;;;;;;6.60;5.93;;;;;;;;;;5107517;28;20754;-61
2021/09/10 07:23:36;;;;;;;7.00;6.20;;;;;;;;;;5109117;28;20470;-61
2021/09/10 07:26:04;;;;;;;6.10;5.60;;;;;;;;;;5111722;28;20281;-61
2021/09/10 07:28:33;;;;;;;6.75;5.50;;;;;;;;;;5111686;28;20374;-61
2021/09/10 07:30:59;;;;;;;8.70;5.47;;;;;;;;;;5106961;28;20549;-61
2021/09/10 07:33:25;;;;;;;6.60;4.97;;;;;;;;;;5112149;28;20055;-61
2021/09/10 07:35:50;;;;;;;5.30;4.05;;;;;;;;;;5102144;28;20034;-61
2021/09/10 07:38:16;;;;;;;5.00;4.40;;;;;;;;;;5109939;28;20023;-61
2021/09/10 07:40:41;;;;;;;5.18;4.28;;;;;;;;;;5112696;28;20393;-61
2021/09/10 07:43:06;;;;;;;6.82;4.25;;;;;;;;;;5114696;28;20015;-60
2021/09/10 07:45:31;;;;;;;5.83;4.47;;;;;;;;;;5111308;28;20024;-61
2021/09/10 07:47:57;;;;;;;6.88;4.10;;;;;;;;;;5115150;28;20615;-60
2021/09/10 07:50:22;;;;;;;5.13;3.67;;;;;;;;;;5111933;28;20016;-60
2021/09/10 07:52:47;;;;;;;5.50;3.40;;;;;;;;;;5114879;28;20370;-59
2021/09/10 07:55:12;;;;;;;4.57;3.63;;;;;;;;;;5108302;28;20289;-59
2021/09/10 07:57:38;;;;;;;4.68;4.28;;;;;;;;;;5111955;28;20016;-60
2021/09/10 08:00:04;;;;;;;5.18;3.97;;;;;;;;;;5111664;28;20016;-60
2021/09/10 08:02:29;;;;;;;4.75;4.35;;;;;;;;;;5114413;28;20484;-60
2021/09/10 08:04:55;;;;;;;5.03;3.72;;;;;;;;;;5096248;28;20110;-60
2021/09/10 08:07:20;;;;;;;4.55;3.53;;;;;;;;;;5114499;28;20019;-58
2021/09/10 08:09:46;;;;;;;5.18;3.85;;;;;;;;;;5112897;28;20066;-60
2021/09/10 08:12:11;;;;;;;4.78;3.58;;;;;;;;;;5117897;27;20034;-60
2021/09/10 08:14:36;;;;;;;3.80;3.50;;;;;;;;;;5111733;28;20389;-60
2021/09/10 08:17:01;;;;;;;5.05;3.83;;;;;;;;;;5113859;28;20748;-60
2021/09/10 08:19:27;;;;;;;3.38;3.10;;;;;;;;;;5111849;28;20020;-60
2021/09/10 08:21:52;;;;;;;4.75;3.25;;;;;;;;;;5113368;28;20099;-60
2021/09/10 08:24:17;;;;;;;4.53;3.87;;;;;;;;;;5114081;28;20047;-60
2021/09/10 08:26:42;;;;;;;5.18;3.92;;;;;;;;;;5113026;28;20308;-61
2021/09/10 08:29:08;;;;;;;6.87;3.90;;;;;;;;;;5112057;28;20020;-60
2021/09/10 08:31:33;;;;;;;4.47;3.77;;;;;;;;;;5107886;27;20280;-60
2021/09/10 08:33:58;;;;;;;3.60;3.30;;;;;;;;;;5106067;27;20692;-60
2021/09/10 08:36:24;;;;;;;3.55;3.25;;;;;;;;;;5106827;28;20027;-60
2021/09/10 08:38:49;;;;;;;3.80;2.90;;;;;;;;;;5107421;27;20490;-59
2021/09/10 08:41:15;;;;;;;4.10;3.40;;;;;;;;;;5102021;28;20292;-59
2021/09/10 08:43:45;;;;;;;5.32;3.42;;;;;;;;;;5106393;28;20024;-59
2021/09/10 08:46:11;;;;;;;6.47;3.22;;;;;;;;;;5108436;28;20485;-60
2021/09/10 08:48:36;;;;;;;3.78;3.47;;;;;;;;;;5112697;28;20032;-60
2021/09/10 08:51:01;;;;;;;3.53;3.23;;;;;;;;;;5110069;28;20085;-59
2021/09/10 08:53:26;;;;;;;6.03;3.13;;;;;;;;;;5104765;28;20273;-59
2021/09/10 08:55:51;;;;;;;4.43;3.17;;;;;;;;;;5110383;28;20374;-60
2021/09/10 08:58:17;;;;;;;3.73;3.30;;;;;;;;;;5110383;28;20265;-60
2021/09/10 09:00:42;;;;;;;4.77;3.40;;;;;;;;;;5107859;28;20530;-59
2021/09/10 09:03:09;;;;;;;3.85;3.45;;;;;;;;;;5101313;28;20327;-60
2021/09/10 09:05:34;;;;;;;3.60;3.30;;;;;;;;;;5112678;28;20111;-59
2021/09/10 09:08:03;;;;;;;3.40;3.10;;;;;;;;;;5113039;28;20091;-60
2021/09/10 09:10:47;;;;;;;3.38;3.08;;;;;;;;;;5111314;28;20019;-60
2021/09/10 09:13:13;;;;;;;4.63;3.50;;;;;;;;;;5113210;28;20031;-59
2021/09/10 09:15:38;;;;;;;3.63;3.20;;;;;;;;;;5111822;28;20101;-59
2021/09/10 09:18:03;;;;;;;3.90;3.17;;;;;;;;;;5108637;28;20034;-59
2021/09/10 09:20:28;;;;;;;3.08;2.83;;;;;;;;;;5112043;28;20034;-60
2021/09/10 09:22:54;;;;;;;3.03;2.67;;;;;;;;;;5111316;28;20386;-60
2021/09/10 09:25:21;;;;;;;3.20;2.73;;;;;;;;;;5112733;28;20651;-60
2021/09/10 09:27:46;;;;;;;3.33;3.03;;;;;;;;;;5111053;28;20269;-60
2021/09/10 09:30:12;;;;;;;3.13;2.60;;;;;;;;;;5110700;28;20031;-60
2021/09/10 09:32:49;;;;;;;3.20;2.90;;;;;;;;;;5112534;28;20269;-60
2021/09/10 09:35:14;;;;;;;3.00;2.30;;;;;;;;;;5111198;28;20740;-60
2021/09/10 09:37:40;;;;;;;3.40;3.13;;;;;;;;;;5112438;28;20019;-60
2021/09/10 09:40:05;;;;;;;4.10;2.60;;;;;;;;;;5111459;28;20485;-60
2021/09/10 09:42:35;;;;;;;3.38;3.08;;;;;;;;;;5112773;28;20411;-60
2021/09/10 09:45:12;;;;;;;4.38;3.10;;;;;;;;;;5111021;28;20421;-60
2021/09/10 09:47:38;;;;;;;4.22;3.40;;;;;;;;;;5111137;28;20023;-59
2021/09/10 09:50:04;;;;;;;9.95;3.40;;;;;;;;;;5107588;28;20158;-59
2021/09/10 09:52:30;;;;;;;4.18;3.08;;;;;;;;;;5112600;28;20027;-59
2021/09/10 09:54:55;;;;;;;4.45;2.70;;;;;;;;;;5090645;28;20426;-59
2021/09/10 09:57:21;;;;;;;6.43;3.10;;;;;;;;;;5103325;28;20016;-59
2021/09/10 09:59:46;;;;;;;5.53;3.10;;;;;;;;;;5110237;28;20355;-61
2021/09/10 10:02:12;;;;;;;3.23;2.93;;;;;;;;;;5111947;28;20051;-62
2021/09/10 10:04:37;;;;;;;6.53;3.25;;;;;;;;;;5111139;28;20284;-62
2021/09/10 10:07:03;;;;;;;6.57;2.90;;;;;;;;;;5111170;28;20498;-61
2021/09/10 10:09:29;;;;;;;4.38;3.17;;;;;;;;;;5101615;28;20242;-61
2021/09/10 10:11:55;;;;;;;5.50;3.08;;;;;;;;;;5110820;28;20431;-61
2021/09/10 10:14:34;;;;;;;6.05;3.40;;;;;;;;;;5107852;28;20077;-62
2021/09/10 10:17:03;;;;;;;5.32;3.55;;;;;;;;;;5101912;28;20081;-61
2021/09/10 10:19:34;;;;;;;4.15;3.13;;;;;;;;;;5111631;28;20061;-62
2021/09/10 10:22:01;;;;;;;3.22;2.92;;;;;;;;;;5105218;28;20036;-62
2021/09/10 10:24:46;;;;;;;2.78;2.58;;;;;;;;;;5105517;27;20405;-61
2021/09/10 10:27:39;;;;;;;4.80;3.15;;;;;;;;;;5094095;28;20527;-61
2021/09/10 10:30:14;;;;;;;6.60;2.88;;;;;;;;;;5120588;27;20474;-61
2021/09/10 10:32:40;;;;;;;3.28;2.95;;;;;;;;;;5110919;28;20076;-61
2021/09/10 10:35:13;;;;;;;3.15;2.78;;;;;;;;;;5108115;28;20402;-62
2021/09/10 10:37:40;;;;;;;5.68;2.88;;;;;;;;;;5108973;28;20090;-62
2021/09/10 10:40:24;;;;;;;3.97;3.13;;;;;;;;;;5109157;28;20051;-60
2021/09/10 10:42:53;;;;;;;4.90;2.50;;;;;;;;;;5102551;28;20071;-61
2021/09/10 10:45:36;;;;;;;3.58;3.00;;;;;;;;;;5102840;28;20028;-61
2021/09/10 10:48:01;;;;;;;5.95;3.35;;;;;;;;;;5105135;28;20106;-61
2021/09/10 10:50:34;;;;;;;5.33;2.90;;;;;;;;;;5101861;28;20140;-61
2021/09/10 10:52:59;;;;;;;3.10;2.90;;;;;;;;;;5100247;28;20031;-59
2021/09/10 10:55:32;;;;;;;4.00;2.80;;;;;;;;;;5102545;28;20056;-62
2021/09/10 10:58:16;;;;;;;3.03;2.83;;;;;;;;;;5105983;28;20023;-61
2021/09/10 11:00:41;;;;;;;4.43;2.50;;;;;;;;;;5103700;28;20012;-61
2021/09/10 11:03:13;;;;;;;7.17;2.90;;;;;;;;;;5103264;28;20081;-61
2021/09/10 11:05:41;;;;;;;6.70;2.95;;;;;;;;;;5109037;28;20469;-61
2021/09/10 11:08:06;;;;;;;5.55;2.45;;;;;;;;;;5111108;28;20055;-61
2021/09/10 11:10:31;;;;;;;4.22;3.25;;;;;;;;;;5109499;28;20100;-61
2021/09/10 11:12:58;;;;;;;5.57;3.07;;;;;;;;;;5107424;28;20031;-62
2021/09/10 11:15:32;;;;;;;5.18;2.88;;;;;;;;;;5106224;28;20022;-62
2021/09/10 11:18:13;;;;;;;3.60;2.30;;;;;;;;;;5111416;28;20072;-62
2021/09/10 11:20:43;;;;;;;5.57;3.00;;;;;;;;;;5107693;28;20065;-62
2021/09/10 11:23:10;;;;;;;3.35;2.50;;;;;;;;;;5101096;28;20254;-61
2021/09/10 11:25:42;;;;;;;3.00;2.80;;;;;;;;;;5105224;28;20015;-61
2021/09/10 11:28:08;;;;;;;4.32;2.20;;;;;;;;;;5107191;28;20454;-60
2021/09/10 11:30:34;;;;;;;3.55;2.72;;;;;;;;;;5084109;28;20032;-61
2021/09/10 11:33:00;;;;;;;3.97;2.50;;;;;;;;;;5105006;28;20020;-61
2021/09/10 11:35:26;;;;;;;2.35;2.20;;;;;;;;;;5092723;28;20027;-61
2021/09/10 11:37:51;;;;;;;3.17;2.40;;;;;;;;;;5110283;28;20019;-60
2021/09/10 11:40:27;;;;;;;3.25;2.45;;;;;;;;;;5093932;28;20020;-61
2021/09/10 11:42:59;;;;;;;3.20;2.63;;;;;;;;;;5109218;28;20015;-61
2021/09/10 11:45:25;;;;;;;4.55;2.80;;;;;;;;;;5109737;28;20016;-62
2021/09/10 11:47:50;;;;;;;2.97;2.60;;;;;;;;;;5115189;28;20031;-61
2021/09/10 11:50:15;;;;;;;5.03;2.67;;;;;;;;;;5111501;28;20610;-61
2021/09/10 11:52:41;;;;;;;4.10;2.57;;;;;;;;;;5113793;28;20327;-62
2021/09/10 11:55:06;;;;;;;2.72;2.30;;;;;;;;;;5104733;28;20047;-61
2021/09/10 11:57:32;;;;;;;2.55;2.35;;;;;;;;;;5109951;28;20083;-62
2021/09/10 11:59:58;;;;;;;2.40;2.20;;;;;;;;;;5088889;28;20016;-62
2021/09/10 12:02:23;;;;;;;2.25;2.15;;;;;;;;;;5109128;28;20024;-62
2021/09/10 12:04:54;;;;;;;2.47;2.17;;;;;;;;;;5087290;28;20064;-61
2021/09/10 12:07:25;;;;;;;2.90;2.15;;;;;;;;;;5102565;28;20028;-61
2021/09/10 12:09:52;;;;;;;2.25;2.05;;;;;;;;;;5105132;28;20039;-61
2021/09/10 12:12:21;;;;;;;2.30;2.20;;;;;;;;;;5107743;28;20115;-62
2021/09/10 12:14:47;;;;;;;2.70;2.50;;;;;;;;;;5106190;28;20486;-62
2021/09/10 12:17:18;;;;;;;3.35;2.15;;;;;;;;;;5099351;28;20020;-62
2021/09/10 12:19:52;;;;;;;2.53;2.30;;;;;;;;;;5112329;28;20069;-61
2021/09/10 12:22:30;;;;;;;2.78;1.95;;;;;;;;;;5110471;27;20016;-61
2021/09/10 12:25:14;;;;;;;2.72;2.28;;;;;;;;;;5104420;28;21112;-61
2021/09/10 12:27:39;;;;;;;;;;;;;;;;;;5098865;27;20028;-60
2021/09/10 12:30:08;;;;;;;2.17;1.88;;;;;;;;;;5115461;27;19953;-61
2021/09/10 12:32:33;;;;;;;2.58;2.08;;;;;;;;;;5110572;28;20027;-61
2021/09/10 12:34:58;;;;;;;4.20;2.40;;;;;;;;;;5105787;28;20048;-61
2021/09/10 12:37:23;;;;;;;2.30;2.10;;;;;;;;;;5102572;28;20030;-61
2021/09/10 12:39:49;;;;;;;2.00;1.90;;;;;;;;;;5110280;28;20020;-61
2021/09/10 12:42:14;;;;;;;3.37;2.40;;;;;;;;;;5111528;28;20008;-61
2021/09/10 12:44:39;;;;;;;3.87;2.90;;;;;;;;;;5088440;28;20063;-60
2021/09/10 12:47:04;;;;;;;2.90;2.33;;;;;;;;;;5107989;28;20024;-61
2021/09/10 12:49:30;;;;;;;2.80;2.40;;;;;;;;;;5095087;28;20043;-61
2021/09/10 12:51:55;;;;;;;2.97;2.77;;;;;;;;;;5110668;28;20032;-61
2021/09/10 12:54:20;;;;;;;2.47;2.27;;;;;;;;;;5110264;28;20023;-61
2021/09/10 12:56:45;;;;;;;3.40;2.40;;;;;;;;;;5110628;28;20027;-61
2021/09/10 12:59:13;;;;;;;2.90;2.27;;;;;;;;;;5110289;28;20031;-61
2021/09/10 13:01:38;;;;;;;3.22;2.17;;;;;;;;;;5106494;27;20417;-62
2021/09/10 13:04:04;;;;;;;4.37;2.47;;;;;;;;;;5113194;28;20016;-62
2021/09/10 13:06:29;;;;;;;2.88;2.40;;;;;;;;;;5113111;28;20027;-62
2021/09/10 13:08:54;;;;;;;2.90;2.50;;;;;;;;;;5111794;28;20224;-62
2021/09/10 13:11:19;;;;;;;3.03;2.50;;;;;;;;;;5111904;28;20023;-62
2021/09/10 13:13:45;;;;;;;2.87;2.67;;;;;;;;;;5106178;28;20764;-61
2021/09/10 13:16:10;;;;;;;2.47;2.08;;;;;;;;;;5111796;28;20500;-61
2021/09/10 13:18:35;;;;;;;3.27;2.57;;;;;;;;;;5113531;28;20034;-61
2021/09/10 13:21:00;;;;;;;2.40;2.20;;;;;;;;;;5111934;28;20015;-62
2021/09/10 13:23:25;;;;;;;3.30;2.20;;;;;;;;;;5112295;28;20106;-62
2021/09/10 13:25:51;;;;;;;2.42;2.22;;;;;;;;;;5112999;27;20023;-62
2021/09/10 13:28:16;;;;;;;2.50;2.40;;;;;;;;;;5102211;27;20082;-62
2021/09/10 13:30:41;;;;;;;2.40;2.20;;;;;;;;;;5095981;28;20765;-62
2021/09/10 13:33:06;;;;;;;2.60;2.40;;;;;;;;;;5110932;28;20269;-62
2021/09/10 13:35:31;;;;;;;3.37;3.10;;;;;;;;;;5111901;28;20371;-62
2021/09/10 13:37:57;;;;;;;3.57;2.60;;;;;;;;;;5112652;28;20019;-62
2021/09/10 13:40:22;;;;;;;2.80;2.60;;;;;;;;;;5111773;28;20020;-61
2021/09/10 13:42:47;;;;;;;3.40;3.17;;;;;;;;;;5112013;28;20012;-62
2021/09/10 13:45:12;;;;;;;4.47;2.60;;;;;;;;;;5111487;28;20269;-62
2021/09/10 13:47:38;;;;;;;3.83;2.97;;;;;;;;;;5112619;28;20274;-62
2021/09/10 13:50:03;;;;;;;4.55;3.30;;;;;;;;;;5107660;28;20273;-62
2021/09/10 13:52:28;;;;;;;3.90;3.45;;;;;;;;;;5092907;28;20491;-61
2021/09/10 13:54:54;;;;;;;4.93;3.17;;;;;;;;;;5110721;28;20027;-61
2021/09/10 13:57:19;;;;;;;4.07;3.70;;;;;;;;;;5111806;28;20024;-62
2021/09/10 13:59:44;;;;;;;4.07;3.67;;;;;;;;;;5106591;28;20019;-62
2021/09/10 14:02:09;;;;;;;4.10;3.70;;;;;;;;;;5109933;28;20276;-62
2021/09/10 14:04:34;;;;;;;4.32;3.70;;;;;;;;;;5110332;28;20413;-62
2021/09/10 14:07:00;;;;;;;6.83;3.90;;;;;;;;;;5102676;28;20028;-62
2021/09/10 14:09:26;;;;;;;3.58;3.28;;;;;;;;;;5097492;28;20034;-63
2021/09/10 14:11:51;;;;;;;3.50;3.20;;;;;;;;;;5108694;28;20023;-63
2021/09/10 14:14:16;;;;;;;3.23;2.80;;;;;;;;;;5113401;27;20035;-62
2021/09/10 14:16:42;;;;;;;3.73;3.07;;;;;;;;;;5111032;28;20030;-62
2021/09/10 14:19:09;;;;;;;4.70;2.97;;;;;;;;;;5107268;28;20266;-62
2021/09/10 14:21:34;;;;;;;3.45;3.08;;;;;;;;;;5112253;28;20416;-63
2021/09/10 14:23:59;;;;;;;3.03;2.83;;;;;;;;;;5109823;28;20049;-60
2021/09/10 14:26:25;;;;;;;3.13;2.63;;;;;;;;;;5123173;27;20492;-61
2021/09/10 14:28:50;;;;;;;2.90;2.70;;;;;;;;;;5116212;27;20027;-62
2021/09/10 14:31:15;;;;;;;2.97;2.75;;;;;;;;;;5111448;28;20054;-61
2021/09/10 14:33:41;;;;;;;2.38;2.28;;;;;;;;;;5109717;28;20043;-62